Time;durP1;ratioP1;P1;durP2;ratioP2;P2;SDS_P1;SDS_P2;PMS_P1;PMS_P2;Temp;Humidity;BMP_temperature;BMP_pressure;BME280_temperature;BME280_humidity;BME280_pressure;Samples;Min_cycle;Max_cycle;Signal;HPM_P1;HPM_P2
2022/12/15 00:39:45;;;;;;;14.50;8.23;;;0.80;99.90;;;;;;4161777;28;20317;-62
2022/12/15 00:41:46;;;;;;;18.20;9.57;;;0.80;99.90;;;;;;4160306;28;20278;-62
2022/12/15 00:43:47;;;;;;;19.30;9.20;;;0.80;99.90;;;;;;4161246;28;20279;-62
2022/12/15 00:48:08;;;;;;;16.90;9.13;;;0.80;99.90;;;;;;4129597;28;20271;-62
2022/12/15 01:20:18;;;;;;;18.97;9.73;;;0.60;99.90;;;;;;4115564;28;20089;-65
2022/12/15 01:22:19;;;;;;;19.60;8.90;;;0.60;99.90;;;;;;4114189;28;20268;-62
2022/12/15 01:24:20;;;;;;;19.17;10.17;;;0.50;99.90;;;;;;4114352;28;20285;-63
2022/12/15 01:26:22;;;;;;;20.97;10.70;;;0.50;99.90;;;;;;4114799;28;20288;-63
2022/12/15 01:28:23;;;;;;;21.33;10.53;;;0.50;99.90;;;;;;4114243;28;20339;-64
2022/12/15 01:30:26;;;;;;;20.97;10.07;;;0.50;99.90;;;;;;4115619;28;20293;-62
2022/12/15 01:32:27;;;;;;;18.03;9.30;;;0.50;99.90;;;;;;4114646;28;20327;-63
2022/12/15 01:34:28;;;;;;;18.20;9.13;;;0.50;99.90;;;;;;4115651;28;20296;-65
2022/12/15 01:36:29;;;;;;;18.47;10.37;;;0.50;99.90;;;;;;4113769;28;20312;-63
2022/12/15 01:38:30;;;;;;;21.23;9.87;;;0.50;99.90;;;;;;4115642;28;20280;-65
2022/12/15 01:40:44;;;;;;;17.93;10.40;;;0.60;99.90;;;;;;4114431;28;20320;-63
2022/12/15 01:42:45;;;;;;;20.47;10.17;;;0.50;99.90;;;;;;4115472;28;20319;-63
2022/12/15 01:44:50;;;;;;;20.43;9.83;;;0.60;99.90;;;;;;4114421;28;20354;-66
2022/12/15 01:46:54;;;;;;;17.57;9.27;;;0.60;99.90;;;;;;4115042;28;20284;-66
2022/12/15 01:49:10;;;;;;;20.33;9.90;;;0.60;99.90;;;;;;4113638;28;20615;-65
2022/12/15 01:51:18;;;;;;;18.80;9.73;;;0.60;99.90;;;;;;4115160;28;20277;-60
2022/12/15 01:53:19;;;;;;;19.27;9.83;;;0.60;99.90;;;;;;4114237;28;20668;-66
2022/12/15 01:55:23;;;;;;;21.17;9.53;;;0.70;99.90;;;;;;4115503;28;20264;-62
2022/12/15 01:57:28;;;;;;;20.70;10.73;;;0.70;99.90;;;;;;4114396;28;20291;-65
2022/12/15 01:59:34;;;;;;;18.97;10.70;;;0.70;99.90;;;;;;4114587;28;20273;-66
2022/12/15 02:01:35;;;;;;;21.23;10.10;;;0.80;99.90;;;;;;4112909;28;20257;-61
2022/12/15 02:03:38;;;;;;;18.83;10.00;;;0.80;99.90;;;;;;4114396;28;21356;-64
2022/12/15 02:05:41;;;;;;;20.40;10.80;;;0.80;99.90;;;;;;4113635;28;20293;-62
2022/12/15 02:07:42;;;;;;;21.97;10.27;;;0.80;99.90;;;;;;4114258;28;20343;-63
2022/12/15 02:09:45;;;;;;;18.77;9.97;;;0.80;99.90;;;;;;4114219;28;20269;-61
2022/12/15 02:11:56;;;;;;;17.70;10.20;;;0.80;99.90;;;;;;4112281;28;20264;-66
2022/12/15 02:14:03;;;;;;;18.30;10.00;;;0.80;99.90;;;;;;4113818;28;20363;-61
2022/12/15 02:16:17;;;;;;;21.07;10.97;;;0.70;99.90;;;;;;4114138;28;20077;-63
2022/12/15 02:18:30;;;;;;;28.23;11.33;;;0.70;99.90;;;;;;4113969;28;20261;-63
2022/12/15 02:20:34;;;;;;;22.97;11.10;;;0.60;99.90;;;;;;4112985;28;20323;-63
2022/12/15 02:22:41;;;;;;;23.87;12.00;;;0.70;99.90;;;;;;4114581;28;20273;-63
2022/12/15 02:25:07;;;;;;;21.43;11.40;;;0.70;99.90;;;;;;4113646;28;20276;-64
2022/12/15 02:27:27;;;;;;;24.47;10.73;;;0.60;99.90;;;;;;4114381;28;20289;-62
2022/12/15 02:29:45;;;;;;;21.70;10.33;;;0.60;99.90;;;;;;4098301;29;20285;-66
2022/12/15 02:31:57;;;;;;;22.00;11.17;;;0.60;99.90;;;;;;4097990;29;20258;-63
2022/12/15 02:34:12;;;;;;;20.80;11.33;;;0.70;99.90;;;;;;4098547;29;20273;-64
2022/12/15 02:36:31;;;;;;;23.53;12.50;;;0.70;99.90;;;;;;4097028;29;20277;-63
2022/12/15 02:38:36;;;;;;;26.77;12.17;;;0.60;99.90;;;;;;4098737;29;20289;-64
2022/12/15 02:40:37;;;;;;;24.50;12.57;;;0.70;99.90;;;;;;4096787;29;20278;-66
2022/12/15 02:42:44;;;;;;;33.43;15.27;;;0.70;99.90;;;;;;4098383;29;20269;-67
2022/12/15 02:44:51;;;;;;;27.47;13.97;;;0.60;99.90;;;;;;4099233;28;20265;-63
2022/12/15 02:47:10;;;;;;;25.10;13.20;;;0.60;99.90;;;;;;4113627;28;20300;-64
2022/12/15 02:49:20;;;;;;;29.97;13.67;;;0.60;99.90;;;;;;4113069;28;20277;-64
2022/12/15 02:51:37;;;;;;;26.45;13.15;;;0.60;99.90;;;;;;4114278;28;20253;-67
2022/12/15 02:53:51;;;;;;;32.53;14.27;;;0.50;99.90;;;;;;4113361;28;20623;-66
2022/12/15 02:56:08;;;;;;;27.47;14.97;;;0.50;99.90;;;;;;4114584;28;20806;-67
2022/12/15 02:58:09;;;;;;;39.17;19.50;;;0.50;99.90;;;;;;4113692;28;20336;-63
2022/12/15 03:00:11;;;;;;;32.13;17.17;;;0.50;99.90;;;;;;4113297;28;20351;-63
2022/12/15 03:02:14;;;;;;;29.70;16.33;;;0.40;99.90;;;;;;4112332;28;20268;-61
2022/12/15 03:04:16;;;;;;;24.00;13.23;;;0.40;99.90;;;;;;4112233;28;20273;-66
2022/12/15 03:06:18;;;;;;;31.67;13.93;;;0.40;99.90;;;;;;4113245;28;20296;-61
2022/12/15 03:08:20;;;;;;;39.60;21.43;;;0.40;99.90;;;;;;4113373;28;20272;-62
2022/12/15 03:10:24;;;;;;;42.57;23.57;;;0.50;99.90;;;;;;4112772;28;20257;-64
2022/12/15 03:12:26;;;;;;;30.50;16.67;;;0.40;99.90;;;;;;4113290;28;20676;-61
2022/12/15 03:14:27;;;;;;;27.30;12.97;;;0.40;99.90;;;;;;4113787;28;20661;-63
2022/12/15 03:16:28;;;;;;;24.03;12.63;;;0.50;99.90;;;;;;4112226;28;20277;-66
2022/12/15 03:18:29;;;;;;;26.90;13.23;;;0.40;99.90;;;;;;4113570;28;20272;-61
2022/12/15 03:20:30;;;;;;;26.77;14.10;;;0.50;99.90;;;;;;4112414;28;20757;-67
2022/12/15 03:22:31;;;;;;;24.83;13.77;;;0.50;99.90;;;;;;4112944;28;20277;-62
2022/12/15 03:24:33;;;;;;;28.90;14.57;;;0.50;99.90;;;;;;4112705;28;20272;-64
2022/12/15 03:26:34;;;;;;;25.40;13.93;;;0.60;99.90;;;;;;4113786;28;20301;-65
2022/12/15 03:28:35;;;;;;;28.03;14.07;;;0.60;99.90;;;;;;4112089;28;20277;-61
2022/12/15 03:30:36;;;;;;;25.90;13.47;;;0.60;99.90;;;;;;4112895;28;20277;-63
2022/12/15 03:32:37;;;;;;;26.63;13.70;;;0.60;99.90;;;;;;4112724;28;20268;-63
2022/12/15 03:34:38;;;;;;;22.90;13.27;;;0.70;99.90;;;;;;4113202;28;20272;-64
2022/12/15 03:36:39;;;;;;;27.53;12.70;;;0.70;99.90;;;;;;4111751;28;20260;-62
2022/12/15 03:38:40;;;;;;;28.77;15.03;;;0.70;99.90;;;;;;4112112;28;20336;-66
2022/12/15 03:40:41;;;;;;;27.20;13.53;;;0.70;99.90;;;;;;4113194;28;20320;-66
2022/12/15 03:42:48;;;;;;;27.10;13.37;;;0.70;99.90;;;;;;4112740;28;20696;-62
2022/12/15 03:44:49;;;;;;;21.20;12.50;;;0.70;99.90;;;;;;4113223;28;20331;-64
2022/12/15 03:46:50;;;;;;;27.27;14.23;;;0.80;99.90;;;;;;4112545;28;20296;-67
2022/12/15 03:48:53;;;;;;;27.03;14.33;;;0.80;99.90;;;;;;4113176;28;20359;-62
2022/12/15 03:50:54;;;;;;;29.53;13.87;;;0.90;99.90;;;;;;4111259;28;20316;-65
2022/12/15 03:53:00;;;;;;;28.23;13.80;;;0.80;99.90;;;;;;4112992;28;20288;-61
2022/12/15 03:55:03;;;;;;;30.50;15.50;;;0.90;99.90;;;;;;4111189;28;20280;-62
2022/12/15 03:57:04;;;;;;;28.30;14.27;;;0.90;99.90;;;;;;4113340;28;20311;-64
2022/12/15 03:59:05;;;;;;;27.17;14.37;;;0.90;99.90;;;;;;4112654;28;20323;-63
2022/12/15 04:01:26;;;;;;;26.30;13.67;;;1.00;99.90;;;;;;4113092;28;20835;-62
2022/12/15 04:03:27;;;;;;;28.27;14.33;;;1.00;99.90;;;;;;4096038;29;20282;-63
2022/12/15 04:05:32;;;;;;;29.87;14.73;;;1.00;99.90;;;;;;4108688;28;21028;-63
2022/12/15 04:07:33;;;;;;;29.47;14.47;;;1.00;99.90;;;;;;4111187;28;20276;-63
2022/12/15 04:09:35;;;;;;;22.17;13.10;;;1.10;99.90;;;;;;4112525;28;20268;-64
2022/12/15 04:11:36;;;;;;;25.97;13.20;;;1.10;99.90;;;;;;4111532;28;20276;-62
2022/12/15 04:13:37;;;;;;;24.03;13.63;;;1.10;99.90;;;;;;4113210;28;20303;-66
2022/12/15 04:15:39;;;;;;;28.20;12.60;;;1.10;99.90;;;;;;4111082;28;20252;-65
2022/12/15 04:17:40;;;;;;;23.83;12.27;;;1.10;99.90;;;;;;4112092;28;20264;-66
2022/12/15 04:22:02;;;;;;;37.17;17.80;;;1.10;99.90;;;;;;4113208;28;20339;-64
2022/12/15 05:31:51;;;;;;;27.30;14.73;;;0.90;99.90;;;;;;4115427;28;20320;-62
2022/12/15 05:33:53;;;;;;;34.80;15.60;;;0.90;99.90;;;;;;4113503;28;20684;-64
2022/12/15 05:35:56;;;;;;;37.23;19.23;;;0.90;99.90;;;;;;4114934;28;20281;-65
2022/12/15 05:37:58;;;;;;;36.10;18.33;;;1.00;99.90;;;;;;4108229;28;20379;-63
2022/12/15 05:39:59;;;;;;;53.53;23.63;;;1.00;99.90;;;;;;4113774;28;20288;-65
2022/12/15 05:42:00;;;;;;;48.07;23.03;;;1.00;99.90;;;;;;4113627;28;20858;-61
2022/12/15 05:44:01;;;;;;;33.30;15.73;;;1.00;99.90;;;;;;4114216;28;20323;-64
2022/12/15 05:46:03;;;;;;;33.43;15.23;;;1.10;99.90;;;;;;4113013;28;20607;-62
2022/12/15 05:48:05;;;;;;;31.20;15.50;;;1.10;99.90;;;;;;4113764;28;20332;-64
2022/12/15 05:50:06;;;;;;;28.57;15.10;;;1.00;99.90;;;;;;4114585;28;20323;-62
2022/12/15 05:52:08;;;;;;;29.43;15.47;;;1.00;99.90;;;;;;4113086;28;20293;-64
2022/12/15 05:54:11;;;;;;;51.50;26.17;;;0.90;99.90;;;;;;4114906;28;20269;-63
2022/12/15 05:56:13;;;;;;;38.90;20.10;;;0.90;99.90;;;;;;4113257;28;20285;-64
2022/12/15 05:58:14;;;;;;;32.87;17.70;;;0.90;99.90;;;;;;4115189;28;20285;-64
2022/12/15 06:00:16;;;;;;;33.73;17.70;;;0.90;99.90;;;;;;4113860;28;20268;-64
2022/12/15 06:02:17;;;;;;;33.43;18.13;;;0.90;99.90;;;;;;4114063;28;20371;-62
2022/12/15 06:04:18;;;;;;;34.97;18.57;;;0.90;99.90;;;;;;4110267;28;20300;-63
2022/12/15 06:06:19;;;;;;;43.77;18.43;;;0.90;99.90;;;;;;4114042;28;20700;-64
2022/12/15 06:08:20;;;;;;;29.47;18.43;;;0.80;99.90;;;;;;4113226;28;20257;-61
2022/12/15 06:10:21;;;;;;;35.53;17.67;;;0.70;99.90;;;;;;4111465;28;20671;-63
2022/12/15 06:12:23;;;;;;;40.03;19.20;;;0.60;99.90;;;;;;4112954;28;20300;-64
2022/12/15 06:14:24;;;;;;;36.63;19.27;;;0.60;99.90;;;;;;4113927;28;20324;-61
2022/12/15 06:16:29;;;;;;;37.80;18.53;;;0.70;99.90;;;;;;4113693;28;20657;-64
2022/12/15 06:18:33;;;;;;;43.13;21.53;;;0.70;99.90;;;;;;4114017;28;20323;-63
2022/12/15 06:20:34;;;;;;;60.53;25.93;;;0.70;99.90;;;;;;4113379;28;20273;-61
2022/12/15 06:22:35;;;;;;;51.60;24.23;;;0.80;99.90;;;;;;4113501;28;20372;-61
2022/12/15 06:24:37;;;;;;;41.80;19.57;;;0.80;99.90;;;;;;4114438;28;20261;-61
2022/12/15 06:26:39;;;;;;;38.67;19.23;;;0.80;99.90;;;;;;4112273;28;20340;-61
2022/12/15 06:28:41;;;;;;;38.47;20.17;;;0.80;99.90;;;;;;4114059;28;20335;-63
2022/12/15 06:30:42;;;;;;;39.77;19.03;;;0.80;99.90;;;;;;4113265;28;20680;-61
2022/12/15 06:32:43;;;;;;;36.20;18.03;;;0.80;99.90;;;;;;4114484;28;20328;-62
2022/12/15 06:34:44;;;;;;;37.73;18.03;;;0.90;99.90;;;;;;4112948;28;20320;-62
2022/12/15 06:36:45;;;;;;;37.70;16.87;;;0.90;99.90;;;;;;4113966;28;20265;-61
2022/12/15 06:38:47;;;;;;;45.67;18.83;;;0.90;99.90;;;;;;4113058;28;20823;-61
2022/12/15 06:40:56;;;;;;;41.17;19.07;;;0.90;99.90;;;;;;4114049;28;20265;-62
2022/12/15 06:42:57;;;;;;;44.50;21.07;;;0.90;99.90;;;;;;4112851;28;20733;-60
2022/12/15 06:44:58;;;;;;;36.27;19.73;;;1.00;99.90;;;;;;4113059;28;20332;-62
2022/12/15 06:46:59;;;;;;;42.37;21.10;;;1.00;99.90;;;;;;4112578;28;20289;-61
2022/12/15 06:49:00;;;;;;;41.20;17.63;;;1.00;99.90;;;;;;4113383;28;20303;-62
2022/12/15 06:51:03;;;;;;;39.57;19.63;;;1.00;99.90;;;;;;4113328;28;20237;-60
2022/12/15 06:53:05;;;;;;;47.97;21.63;;;1.00;99.90;;;;;;4112843;28;20281;-62
2022/12/15 06:55:06;;;;;;;47.07;22.47;;;1.10;99.90;;;;;;4113039;28;20261;-61
2022/12/15 06:57:07;;;;;;;52.13;24.53;;;1.10;99.90;;;;;;4112596;28;20655;-60
2022/12/15 06:59:10;;;;;;;52.10;23.07;;;1.10;99.90;;;;;;4113010;28;20269;-62
2022/12/15 07:01:11;;;;;;;52.73;23.70;;;1.10;99.90;;;;;;4112758;28;20277;-61
2022/12/15 07:03:15;;;;;;;48.03;22.50;;;1.00;99.90;;;;;;4113879;28;20261;-60
2022/12/15 07:05:17;;;;;;;48.10;23.13;;;1.00;99.90;;;;;;4113236;28;20285;-59
2022/12/15 07:07:18;;;;;;;43.63;21.03;;;1.00;99.90;;;;;;4113381;28;20300;-60
2022/12/15 07:09:19;;;;;;;47.17;22.30;;;1.00;99.90;;;;;;4112439;28;20268;-62
2022/12/15 07:11:21;;;;;;;42.00;20.87;;;1.00;99.90;;;;;;4113940;28;20664;-61
2022/12/15 07:13:22;;;;;;;50.53;21.00;;;1.00;99.90;;;;;;4112630;28;20676;-60
2022/12/15 07:15:23;;;;;;;46.57;20.90;;;1.00;99.90;;;;;;4113347;28;20339;-60
2022/12/15 07:17:24;;;;;;;42.43;20.93;;;1.00;99.90;;;;;;4112162;28;20312;-61
2022/12/15 07:19:25;;;;;;;51.00;20.83;;;1.10;99.90;;;;;;4113470;28;20729;-62
2022/12/15 07:21:27;;;;;;;42.30;21.93;;;1.10;99.90;;;;;;4112369;28;20273;-61
2022/12/15 07:23:28;;;;;;;45.43;22.80;;;1.10;99.90;;;;;;4112578;28;20327;-58
2022/12/15 07:25:29;;;;;;;47.60;20.83;;;1.20;99.90;;;;;;4112826;28;20320;-62
2022/12/15 07:27:30;;;;;;;45.70;18.77;;;1.30;99.90;;;;;;4112068;28;20847;-61
2022/12/15 07:29:31;;;;;;;44.20;18.50;;;1.30;99.90;;;;;;4113215;28;20326;-63
2022/12/15 07:31:32;;;;;;;38.57;17.90;;;1.30;99.90;;;;;;4111692;28;20269;-62
2022/12/15 07:33:35;;;;;;;35.87;18.63;;;1.30;99.90;;;;;;4113496;28;20281;-62
2022/12/15 07:35:36;;;;;;;38.30;21.13;;;1.30;99.90;;;;;;4112651;28;20320;-65
2022/12/15 07:37:37;;;;;;;52.07;24.10;;;1.30;99.90;;;;;;4113296;28;20284;-61
2022/12/15 07:39:38;;;;;;;40.90;18.93;;;1.20;99.90;;;;;;4112517;28;20276;-62
2022/12/15 07:41:39;;;;;;;36.90;17.27;;;1.30;99.90;;;;;;4113348;28;20261;-62
2022/12/15 07:43:40;;;;;;;32.80;16.27;;;1.30;99.90;;;;;;4111738;28;20874;-61
2022/12/15 07:45:41;;;;;;;45.03;19.10;;;1.40;99.90;;;;;;4112713;28;20716;-61
2022/12/15 07:47:42;;;;;;;40.67;19.23;;;1.40;99.90;;;;;;4112068;28;20292;-62
2022/12/15 07:49:43;;;;;;;38.20;19.23;;;1.50;99.90;;;;;;4112598;28;20752;-62
2022/12/15 07:51:45;;;;;;;39.20;17.77;;;1.60;99.90;;;;;;4112283;28;20245;-63
2022/12/15 07:53:49;;;;;;;40.70;19.97;;;1.50;99.90;;;;;;4112556;28;20315;-62
2022/12/15 07:55:58;;;;;;;38.07;17.03;;;1.60;99.90;;;;;;4112167;28;20323;-61
2022/12/15 07:57:59;;;;;;;35.30;16.83;;;1.70;99.90;;;;;;4111612;28;20269;-66
2022/12/15 08:00:00;;;;;;;31.37;17.80;;;1.70;99.90;;;;;;4112482;28;20320;-64
2022/12/15 08:02:03;;;;;;;34.77;15.53;;;1.70;99.90;;;;;;4111394;28;20320;-61
2022/12/15 08:04:04;;;;;;;33.03;16.13;;;1.70;99.90;;;;;;4112373;28;20351;-62
2022/12/15 08:06:10;;;;;;;29.73;15.80;;;1.80;99.90;;;;;;4111962;28;20273;-61
2022/12/15 08:08:11;;;;;;;32.27;16.40;;;1.80;99.90;;;;;;4112855;28;20288;-63
2022/12/15 08:10:12;;;;;;;46.20;18.30;;;1.70;99.90;;;;;;4110821;28;20612;-61
2022/12/15 08:12:13;;;;;;;36.23;17.53;;;1.80;99.90;;;;;;4113024;28;20268;-62
2022/12/15 08:14:15;;;;;;;34.30;15.33;;;1.80;99.90;;;;;;4111671;28;20269;-62
2022/12/15 08:16:16;;;;;;;32.63;17.00;;;1.80;99.90;;;;;;4112340;28;20355;-61
2022/12/15 08:18:17;;;;;;;30.63;16.57;;;1.80;99.90;;;;;;4111169;28;20277;-64
2022/12/15 08:20:18;;;;;;;34.37;17.80;;;1.90;99.90;;;;;;4112972;28;20324;-61
2022/12/15 08:22:19;;;;;;;35.37;16.73;;;1.90;99.90;;;;;;4111570;28;20335;-60
2022/12/15 08:24:20;;;;;;;41.83;18.20;;;1.90;99.90;;;;;;4112701;28;20265;-63
2022/12/15 08:26:22;;;;;;;33.93;15.90;;;1.90;99.90;;;;;;4111484;28;20265;-62
2022/12/15 08:28:23;;;;;;;31.97;15.87;;;2.00;99.90;;;;;;4111158;28;20400;-62
2022/12/15 08:30:24;;;;;;;33.83;15.57;;;2.10;99.90;;;;;;4112078;28;20789;-60
2022/12/15 08:32:25;;;;;;;29.73;14.70;;;2.20;99.90;;;;;;4111354;28;20831;-62
2022/12/15 08:34:27;;;;;;;34.53;16.87;;;2.20;99.90;;;;;;4112195;28;20293;-61
2022/12/15 08:36:28;;;;;;;33.27;16.33;;;2.30;99.90;;;;;;4111184;28;20327;-65
2022/12/15 08:38:30;;;;;;;32.30;15.33;;;2.30;99.90;;;;;;4112188;28;20831;-63
2022/12/15 08:40:31;;;;;;;29.63;14.80;;;2.40;99.90;;;;;;4110824;28;20328;-62
2022/12/15 08:42:33;;;;;;;27.70;14.30;;;2.40;99.90;;;;;;4112198;28;20696;-62
2022/12/15 08:44:34;;;;;;;33.23;16.23;;;2.40;99.90;;;;;;4111380;28;20340;-61
2022/12/15 08:46:36;;;;;;;34.00;16.07;;;2.50;99.90;;;;;;4112657;28;20273;-63
2022/12/15 08:48:37;;;;;;;31.63;15.37;;;2.40;99.90;;;;;;4111160;28;20324;-61
2022/12/15 08:50:43;;;;;;;27.33;13.80;;;2.50;99.90;;;;;;4112498;28;20385;-62
2022/12/15 08:52:44;;;;;;;30.07;15.00;;;2.40;99.90;;;;;;4111406;28;20331;-63
2022/12/15 08:54:45;;;;;;;35.63;15.47;;;2.40;99.90;;;;;;4112080;28;20335;-65
2022/12/15 08:56:46;;;;;;;36.90;15.60;;;2.50;99.90;;;;;;4111011;28;20756;-62
2022/12/15 08:58:49;;;;;;;30.27;15.10;;;2.50;99.90;;;;;;4111549;28;20268;-61
2022/12/15 09:00:50;;;;;;;31.60;15.60;;;2.60;99.90;;;;;;4111242;28;20319;-63
2022/12/15 09:02:51;;;;;;;23.63;14.20;;;2.70;99.90;;;;;;4111863;28;20859;-65
2022/12/15 09:04:52;;;;;;;32.27;15.27;;;2.70;99.90;;;;;;4094938;29;20293;-64
2022/12/15 09:06:53;;;;;;;35.97;15.97;;;2.80;99.90;;;;;;4109935;28;20273;-60
2022/12/15 09:08:56;;;;;;;30.80;15.33;;;2.80;99.90;;;;;;4111980;28;20665;-64
2022/12/15 09:10:59;;;;;;;31.57;18.10;;;2.90;99.90;;;;;;4111346;28;20269;-63
2022/12/15 09:13:00;;;;;;;27.70;14.93;;;3.10;99.90;;;;;;4112004;28;20277;-61
2022/12/15 09:15:01;;;;;;;39.40;15.20;;;3.10;99.90;;;;;;4111382;28;20359;-64
2022/12/15 09:17:02;;;;;;;53.70;15.90;;;3.10;99.90;;;;;;4111977;28;20261;-64
2022/12/15 09:19:04;;;;;;;49.87;18.23;;;3.20;99.90;;;;;;4111325;28;20272;-61
2022/12/15 09:21:06;;;;;;;47.03;16.80;;;3.30;99.90;;;;;;4112624;28;20335;-61
2022/12/15 09:23:07;;;;;;;42.27;17.43;;;3.40;99.90;;;;;;4114106;28;20712;-61
2022/12/15 09:25:09;;;;;;;44.63;18.23;;;3.40;99.90;;;;;;4115355;28;20277;-61
2022/12/15 09:27:10;;;;;;;46.03;18.63;;;3.40;99.90;;;;;;4114435;28;20288;-62
2022/12/15 09:29:14;;;;;;;45.23;18.83;;;3.50;99.90;;;;;;4114924;28;20272;-61
2022/12/15 09:31:16;;;;;;;43.60;20.50;;;3.60;99.90;;;;;;4114074;28;20303;-61
2022/12/15 09:33:17;;;;;;;41.93;19.00;;;3.60;99.90;;;;;;4114377;28;20332;-60
2022/12/15 09:35:18;;;;;;;46.43;20.30;;;3.50;99.90;;;;;;4114672;28;20257;-62
2022/12/15 09:37:20;;;;;;;47.53;18.47;;;3.50;99.90;;;;;;4113361;28;20285;-62
2022/12/15 09:39:21;;;;;;;60.37;18.93;;;3.50;99.90;;;;;;4114721;28;20257;-62
2022/12/15 09:41:26;;;;;;;58.10;18.23;;;3.50;99.90;;;;;;4113426;28;20347;-62
2022/12/15 09:43:27;;;;;;;51.33;19.67;;;3.40;99.90;;;;;;4114902;28;21078;-62
2022/12/15 09:45:38;;;;;;;59.80;19.20;;;3.40;99.90;;;;;;4113666;28;20281;-62
2022/12/15 09:47:57;;;;;;;56.93;20.53;;;3.40;99.90;;;;;;4114802;28;20339;-61
2022/12/15 09:50:02;;;;;;;43.80;17.50;;;3.50;99.90;;;;;;4113854;28;20598;-62
2022/12/15 09:52:10;;;;;;;48.50;17.20;;;3.50;99.90;;;;;;4114173;28;20284;-63
2022/12/15 09:54:11;;;;;;;45.07;18.77;;;3.50;99.90;;;;;;4113885;28;20277;-60
2022/12/15 09:56:21;;;;;;;42.27;16.60;;;3.60;99.90;;;;;;4114995;28;20269;-62
2022/12/15 09:58:41;;;;;;;45.55;18.73;;;3.60;99.90;;;;;;4112775;28;20602;-61
2022/12/15 10:00:54;;;;;;;37.87;16.27;;;3.70;99.90;;;;;;4114941;28;20035;-62
2022/12/15 10:03:19;;;;;;;42.27;15.37;;;3.80;99.90;;;;;;4095882;29;20336;-61
2022/12/15 10:05:46;;;;;;;30.97;15.17;;;3.80;99.90;;;;;;4114681;28;20323;-61
2022/12/15 10:07:48;;;;;;;30.37;16.70;;;3.90;99.90;;;;;;4113743;28;20344;-62
2022/12/15 10:09:50;;;;;;;46.70;19.50;;;3.90;99.90;;;;;;4113818;28;20333;-62
2022/12/15 10:12:01;;;;;;;41.00;17.07;;;4.10;99.90;;;;;;4112925;28;20261;-60
2022/12/15 10:14:15;;;;;;;34.63;17.50;;;4.20;99.90;;;;;;4114174;28;20316;-60
2022/12/15 10:16:30;;;;;;;46.10;16.77;;;4.20;99.90;;;;;;4095800;29;20667;-65
2022/12/15 10:18:38;;;;;;;36.77;16.57;;;4.30;99.90;;;;;;4113234;28;20312;-62
2022/12/15 10:20:39;;;;;;;30.70;14.83;;;4.30;99.90;;;;;;4112813;28;20272;-60
2022/12/15 10:22:41;;;;;;;26.53;13.03;;;4.30;99.90;;;;;;4114160;28;20304;-62
2022/12/15 10:24:42;;;;;;;23.73;12.00;;;4.30;99.90;;;;;;4112843;28;20268;-61
2022/12/15 10:26:51;;;;;;;26.57;11.80;;;4.40;99.90;;;;;;4113937;28;20315;-61
2022/12/15 10:29:19;;;;;;;20.73;10.53;;;4.40;99.90;;;;;;4112933;28;20285;-63
2022/12/15 10:31:25;;;;;;;19.83;11.07;;;4.40;99.90;;;;;;4113210;28;20811;-62
2022/12/15 10:33:37;;;;;;;19.77;9.53;;;4.40;99.90;;;;;;4112384;28;20700;-63
2022/12/15 10:35:42;;;;;;;20.87;10.70;;;4.50;99.90;;;;;;4114234;28;20351;-63
2022/12/15 10:37:43;;;;;;;15.63;9.30;;;4.50;99.90;;;;;;4113161;28;20281;-61
2022/12/15 10:39:49;;;;;;;19.93;10.07;;;4.60;99.90;;;;;;4114219;28;20264;-62
2022/12/15 10:42:15;;;;;;;20.37;10.13;;;4.60;99.90;;;;;;4112943;28;20744;-63
2022/12/15 10:44:35;;;;;;;21.97;11.77;;;4.80;99.90;;;;;;4113776;28;20776;-63
2022/12/15 10:46:36;;;;;;;18.00;10.07;;;4.90;99.90;;;;;;4112371;28;20332;-62
2022/12/15 10:48:37;;;;;;;19.63;10.57;;;5.00;99.90;;;;;;4113379;28;20300;-64
2022/12/15 10:50:38;;;;;;;20.40;10.60;;;4.90;99.90;;;;;;4112614;28;20448;-61
2022/12/15 10:52:53;;;;;;;17.43;8.63;;;5.00;99.90;;;;;;4113966;28;20672;-61
2022/12/15 10:54:55;;;;;;;21.63;10.17;;;5.00;99.90;;;;;;4095882;29;20286;-65
2022/12/15 10:56:58;;;;;;;18.67;10.30;;;4.90;99.90;;;;;;4112820;28;20268;-60
2022/12/15 10:59:21;;;;;;;19.87;11.03;;;5.00;99.90;;;;;;4112411;28;20661;-63
2022/12/15 11:01:27;;;;;;;18.27;10.63;;;5.10;99.90;;;;;;4113328;28;20284;-63
2022/12/15 11:03:35;;;;;;;21.33;10.40;;;4.90;99.90;;;;;;4112851;28;20281;-64
2022/12/15 11:05:36;;;;;;;19.63;10.80;;;4.80;99.90;;;;;;4115070;28;20085;-64
2022/12/15 11:07:43;;;;;;;22.70;11.27;;;4.80;99.90;;;;;;4112799;28;20348;-63
2022/12/15 11:09:47;;;;;;;19.37;10.43;;;4.80;99.90;;;;;;4114636;28;20066;-65
2022/12/15 11:14:14;;;;;;;18.08;10.68;;;4.80;99.90;;;;;;4114641;28;20093;-64
2022/12/15 11:16:18;;;;;;;25.03;11.83;;;4.80;99.90;;;;;;4112731;28;20042;-64
2022/12/15 11:18:28;;;;;;;25.73;11.80;;;4.70;99.90;;;;;;4113461;28;20277;-64
2022/12/15 11:20:37;;;;;;;19.23;11.00;;;4.80;99.90;;;;;;4112879;28;20269;-63
2022/12/15 11:22:51;;;;;;;20.00;11.37;;;4.80;99.90;;;;;;4113754;28;20379;-62
2022/12/15 11:24:57;;;;;;;23.23;11.37;;;4.80;99.90;;;;;;4112489;28;20321;-64
2022/12/15 11:27:08;;;;;;;26.10;12.30;;;4.90;99.90;;;;;;4113199;28;20343;-61
2022/12/15 11:29:43;;;;;;;28.80;14.07;;;4.90;99.90;;;;;;4112652;28;20312;-65
2022/12/15 11:31:44;;;;;;;23.70;12.50;;;4.90;99.90;;;;;;4113303;28;20757;-67
2022/12/15 11:33:45;;;;;;;25.07;13.00;;;4.90;99.90;;;;;;4112784;28;20336;-65
2022/12/15 11:36:28;;;;;;;31.87;12.60;;;5.00;99.90;;;;;;4113888;28;20332;-63
2022/12/15 11:38:45;;;;;;;21.23;11.40;;;5.00;99.90;;;;;;4083028;28;20097;-63
2022/12/15 11:40:47;;;;;;;23.53;12.40;;;5.00;99.90;;;;;;4112748;28;20246;-65
2022/12/15 11:42:51;;;;;;;27.73;12.97;;;4.90;99.90;;;;;;4111602;28;20321;-63
2022/12/15 11:45:22;;;;;;;21.90;11.80;;;4.90;99.90;;;;;;4112843;28;20261;-63
2022/12/15 11:47:39;;;;;;;24.90;11.47;;;4.90;99.90;;;;;;4112647;28;20273;-66
2022/12/15 11:49:55;;;;;;;25.07;10.93;;;4.70;99.90;;;;;;4112430;28;20281;-63
2022/12/15 11:52:22;;;;;;;17.63;10.27;;;4.70;99.90;;;;;;4111986;28;20487;-64
2022/12/15 11:54:29;;;;;;;22.63;10.97;;;4.60;99.90;;;;;;4111805;28;20077;-61
2022/12/15 11:56:35;;;;;;;21.33;11.53;;;4.60;99.90;;;;;;4112509;28;20332;-63
2022/12/15 11:58:51;;;;;;;22.57;11.80;;;4.60;99.90;;;;;;4111931;28;20261;-62
2022/12/15 12:01:17;;;;;;;25.37;11.73;;;4.60;99.90;;;;;;4112742;28;20272;-62
2022/12/15 12:03:27;;;;;;;21.50;11.03;;;4.60;99.90;;;;;;4111903;28;20272;-61
2022/12/15 12:05:59;;;;;;;19.43;10.10;;;4.50;99.90;;;;;;4113359;28;20284;-63
2022/12/15 12:08:26;;;;;;;18.90;10.53;;;4.50;99.90;;;;;;4111609;28;20674;-62
2022/12/15 12:11:03;;;;;;;25.53;12.77;;;4.40;99.90;;;;;;4111832;28;20323;-61
2022/12/15 12:13:29;;;;;;;26.00;11.87;;;4.50;99.90;;;;;;4081929;28;20697;-61
2022/12/15 12:16:12;;;;;;;22.27;10.97;;;4.40;99.90;;;;;;4111519;28;20316;-61
2022/12/15 12:18:30;;;;;;;21.13;11.20;;;4.40;99.90;;;;;;4112815;28;20265;-62
2022/12/15 12:20:48;;;;;;;28.20;12.47;;;4.40;99.90;;;;;;4110955;28;20277;-63
2022/12/15 12:23:14;;;;;;;24.00;11.67;;;4.30;99.90;;;;;;4112755;28;20669;-62
2022/12/15 12:25:19;;;;;;;23.73;12.43;;;4.30;99.90;;;;;;4111875;28;20268;-62
2022/12/15 12:27:35;;;;;;;21.40;12.50;;;4.30;99.90;;;;;;4095040;29;20329;-62
2022/12/15 12:29:51;;;;;;;18.63;10.73;;;4.30;99.90;;;;;;4111299;28;20285;-61
2022/12/15 12:32:22;;;;;;;23.03;12.10;;;4.30;99.90;;;;;;4112482;28;20294;-61
2022/12/15 12:35:01;;;;;;;21.87;12.53;;;4.20;99.90;;;;;;4111221;28;20276;-62
2022/12/15 12:37:34;;;;;;;24.97;12.40;;;4.20;99.90;;;;;;4111545;28;20277;-62
2022/12/15 12:39:36;;;;;;;25.57;13.07;;;4.20;99.90;;;;;;4112444;28;20277;-61
2022/12/15 12:42:08;;;;;;;23.53;12.63;;;4.10;99.90;;;;;;4111357;28;20268;-65
2022/12/15 12:44:31;;;;;;;24.53;13.40;;;4.10;99.90;;;;;;4112543;28;20277;-62
2022/12/15 12:46:39;;;;;;;25.60;13.30;;;4.10;99.90;;;;;;4110527;28;20269;-63
2022/12/15 12:48:49;;;;;;;23.53;11.70;;;4.10;99.90;;;;;;4112482;28;20288;-63
2022/12/15 12:51:07;;;;;;;21.75;12.57;;;4.10;99.90;;;;;;4111372;28;20268;-63
2022/12/15 12:53:26;;;;;;;23.43;13.10;;;4.10;99.90;;;;;;4112595;28;20423;-61
2022/12/15 12:55:38;;;;;;;24.67;12.37;;;4.10;99.90;;;;;;4111244;28;20264;-60
2022/12/15 12:57:41;;;;;;;28.40;12.67;;;4.10;99.90;;;;;;4115476;28;20261;-62
2022/12/15 12:59:50;;;;;;;27.33;13.03;;;4.20;99.90;;;;;;4114431;28;20269;-64
2022/12/15 13:01:57;;;;;;;25.57;13.03;;;4.20;99.90;;;;;;4114806;28;20705;-63
2022/12/15 13:04:11;;;;;;;29.37;13.43;;;4.20;99.90;;;;;;4113743;28;20367;-61
2022/12/15 13:06:40;;;;;;;26.20;13.27;;;4.30;99.90;;;;;;4115720;28;20796;-62
2022/12/15 13:08:52;;;;;;;22.53;12.03;;;4.20;99.90;;;;;;4074278;28;20301;-61
2022/12/15 13:10:56;;;;;;;30.07;12.03;;;4.10;99.90;;;;;;4115353;28;20298;-62
2022/12/15 13:13:14;;;;;;;26.43;13.10;;;4.10;99.90;;;;;;4113831;28;20331;-63